createdAt,value
2022-08-18T00:02:10.704Z,6.90
2022-08-18T00:04:48.608Z,7.15
2022-08-18T00:07:22.472Z,5.93
2022-08-18T00:09:53.631Z,7.50
2022-08-18T00:12:28.642Z,7.00
2022-08-18T00:15:01.995Z,6.47
2022-08-18T00:17:31.695Z,6.70
2022-08-18T00:20:01.772Z,6.18
2022-08-18T00:22:30.910Z,8.03
2022-08-18T00:25:01.782Z,6.47
2022-08-18T00:27:33.081Z,6.78
2022-08-18T00:30:06.490Z,7.00
2022-08-18T00:32:40.489Z,6.93
2022-08-18T00:35:13.637Z,6.38
2022-08-18T00:37:43.998Z,6.67
2022-08-18T00:40:18.152Z,6.63
2022-08-18T00:42:51.719Z,6.53
2022-08-18T00:45:25.368Z,6.60
2022-08-18T00:47:55.269Z,7.00
2022-08-18T00:50:34.045Z,7.40
2022-08-18T00:53:08.843Z,6.82
2022-08-18T00:55:46.341Z,6.80
2022-08-18T00:58:31.007Z,6.67
2022-08-18T01:01:03.030Z,6.70
2022-08-18T01:03:34.126Z,6.90
2022-08-18T01:06:08.672Z,6.93
2022-08-18T01:08:38.758Z,6.60
2022-08-18T01:11:12.763Z,6.70
2022-08-18T01:13:44.348Z,6.40
2022-08-18T01:16:30.940Z,6.90
2022-08-18T01:19:17.434Z,6.30
2022-08-18T01:21:53.858Z,7.00
2022-08-18T01:24:43.043Z,7.20
2022-08-18T01:27:18.606Z,6.38
2022-08-18T01:29:50.257Z,6.50
2022-08-18T01:32:24.360Z,7.47
2022-08-18T01:34:54.959Z,7.70
2022-08-18T01:37:25.868Z,7.60
2022-08-18T01:41:17.213Z,6.90
2022-08-18T01:42:46.594Z,7.32
2022-08-18T01:45:18.528Z,7.00
2022-08-18T01:47:49.619Z,8.25
2022-08-18T01:50:19.521Z,8.63
2022-08-18T01:52:50.026Z,9.07
2022-08-18T01:55:20.892Z,8.30
2022-08-18T01:57:50.278Z,8.75
2022-08-18T02:00:19.918Z,8.18
2022-08-18T02:02:57.998Z,9.00
2022-08-18T02:05:35.824Z,9.30
2022-08-18T02:08:06.568Z,8.23
2022-08-18T02:10:37.163Z,8.20
2022-08-18T02:13:06.646Z,8.65
2022-08-18T02:15:36.831Z,9.30
2022-08-18T02:18:06.317Z,9.20
2022-08-18T02:20:35.426Z,9.27
2022-08-18T02:23:04.564Z,8.63
2022-08-18T02:25:33.987Z,9.07
2022-08-18T02:28:05.976Z,8.85
2022-08-18T02:30:37.510Z,8.53
2022-08-18T02:33:07.499Z,8.00
2022-08-18T02:35:37.363Z,8.50
2022-08-18T02:38:08.783Z,8.77
2022-08-18T02:40:38.474Z,8.23
2022-08-18T02:43:10.840Z,8.50
2022-08-18T02:45:41.156Z,9.30
2022-08-18T02:48:10.512Z,8.20
2022-08-18T02:50:46.040Z,8.10
2022-08-18T02:53:21.795Z,7.93
2022-08-18T02:55:51.123Z,8.23
2022-08-18T02:58:21.950Z,7.50
2022-08-18T03:00:51.073Z,7.63
2022-08-18T03:03:20.271Z,7.20
2022-08-18T03:05:49.365Z,7.57
2022-08-18T03:08:18.499Z,7.55
2022-08-18T03:10:47.620Z,7.05
2022-08-18T03:13:16.808Z,7.53
2022-08-18T03:15:47.479Z,7.72
2022-08-18T03:18:16.978Z,7.47
2022-08-18T03:20:46.696Z,8.02
2022-08-18T03:23:16.735Z,7.28
2022-08-18T03:25:48.646Z,7.32
2022-08-18T03:28:19.334Z,8.23
2022-08-18T03:30:50.250Z,7.30
2022-08-18T03:33:19.401Z,7.80
2022-08-18T03:35:48.699Z,7.55
2022-08-18T03:38:17.893Z,7.03
2022-08-18T03:40:52.983Z,6.30
2022-08-18T03:43:49.573Z,7.93
2022-08-18T03:46:16.012Z,8.00
2022-08-18T03:48:47.388Z,7.65
2022-08-18T03:51:22.115Z,7.78
2022-08-18T03:53:51.943Z,7.72
2022-08-18T03:56:24.566Z,7.43
2022-08-18T03:58:56.638Z,7.85
2022-08-18T04:01:30.473Z,8.73
2022-08-18T04:04:02.803Z,7.93
2022-08-18T04:06:38.669Z,7.60
2022-08-18T04:09:11.621Z,7.40
2022-08-18T04:11:44.379Z,7.65
2022-08-18T04:14:15.653Z,7.43
2022-08-18T04:16:46.817Z,7.77
2022-08-18T04:19:25.191Z,8.43
2022-08-18T04:21:58.611Z,7.25
2022-08-18T04:24:32.065Z,7.78
2022-08-18T04:27:05.621Z,7.43
2022-08-18T04:29:34.767Z,7.68
2022-08-18T04:32:06.248Z,8.20
2022-08-18T04:34:36.490Z,7.72
2022-08-18T04:37:05.836Z,7.10
2022-08-18T04:39:35.009Z,7.50
2022-08-18T04:42:05.996Z,6.75
2022-08-18T04:44:37.886Z,7.88
2022-08-18T04:47:10.091Z,7.72
2022-08-18T04:49:40.051Z,7.40
2022-08-18T04:52:39.828Z,7.75
2022-08-18T04:55:11.978Z,8.27
2022-08-18T04:57:42.492Z,7.20
2022-08-18T05:00:13.966Z,6.85
2022-08-18T05:02:44.505Z,7.53
2022-08-18T05:05:13.706Z,7.10
2022-08-18T05:07:47.571Z,7.45
2022-08-18T05:10:18.187Z,7.10
2022-08-18T05:12:49.572Z,8.05
2022-08-18T05:15:20.246Z,6.55
2022-08-18T05:17:51.200Z,7.30
2022-08-18T05:20:23.231Z,7.75
2022-08-18T05:22:52.811Z,7.45
2022-08-18T05:25:22.133Z,6.90
2022-08-18T05:27:51.497Z,7.40
2022-08-18T05:30:21.500Z,7.30
2022-08-18T05:32:52.172Z,7.07
2022-08-18T05:35:26.789Z,8.20
2022-08-18T05:38:30.547Z,7.20
2022-08-18T05:41:13.911Z,7.97
2022-08-18T05:43:52.211Z,7.90
2022-08-18T05:46:27.533Z,7.17
2022-08-18T05:48:58.234Z,8.10
2022-08-18T05:51:35.543Z,7.20
2022-08-18T05:54:24.179Z,7.10
2022-08-18T05:56:59.267Z,7.23
2022-08-18T05:59:34.206Z,7.23
2022-08-18T06:02:13.095Z,6.57
2022-08-18T06:04:50.901Z,7.33
2022-08-18T06:07:33.635Z,7.10
2022-08-18T06:10:05.780Z,7.50
2022-08-18T06:12:46.624Z,7.50
2022-08-18T06:15:24.418Z,7.60
2022-08-18T06:18:21.144Z,7.43
2022-08-18T06:21:42.247Z,7.97
2022-08-18T06:24:21.861Z,7.33
2022-08-18T06:26:59.954Z,7.87
2022-08-18T06:29:47.351Z,8.27
2022-08-18T06:32:28.713Z,7.67
2022-08-18T06:35:15.450Z,8.57
2022-08-18T06:38:12.703Z,7.30
2022-08-18T06:40:42.165Z,8.03
2022-08-18T06:43:17.020Z,8.20
2022-08-18T06:45:52.356Z,7.77
2022-08-18T06:48:33.184Z,8.00
2022-08-18T06:51:05.426Z,7.03
2022-08-18T06:54:05.646Z,8.40
2022-08-18T06:56:51.501Z,8.47
2022-08-18T06:59:33.675Z,9.70
2022-08-18T07:02:43.099Z,9.70
2022-08-18T07:05:20.429Z,8.40
2022-08-18T07:08:18.405Z,8.00
2022-08-18T07:10:54.021Z,7.93
2022-08-18T07:13:27.554Z,7.90
2022-08-18T07:16:26.314Z,7.40
2022-08-18T07:19:10.160Z,8.13
2022-08-18T07:21:42.259Z,6.87
2022-08-18T07:24:25.584Z,7.77
2022-08-18T07:27:10.979Z,6.30
2022-08-18T07:30:00.397Z,7.33
2022-08-18T07:32:35.418Z,7.60
2022-08-18T07:35:09.966Z,7.70
2022-08-18T07:37:48.066Z,7.27
2022-08-18T07:40:27.439Z,7.90
2022-08-18T07:43:03.210Z,7.90
2022-08-18T07:45:38.966Z,7.97
2022-08-18T07:48:37.134Z,8.40
2022-08-18T07:51:16.502Z,6.77
2022-08-18T07:53:58.549Z,8.30
2022-08-18T07:56:43.010Z,7.40
2022-08-18T07:59:22.880Z,6.27
2022-08-18T08:02:09.965Z,6.40
2022-08-18T08:04:48.302Z,7.60
2022-08-18T08:07:24.823Z,7.63
2022-08-18T08:10:07.480Z,7.07
2022-08-18T08:12:45.248Z,6.77
2022-08-18T08:15:27.044Z,7.00
2022-08-18T08:18:06.163Z,7.13
2022-08-18T08:20:44.967Z,8.10
2022-08-18T08:23:27.447Z,9.10
2022-08-18T08:26:21.714Z,7.57
2022-08-18T08:29:05.121Z,7.20
2022-08-18T08:31:53.716Z,7.73
2022-08-18T08:34:29.869Z,7.40
2022-08-18T08:37:05.055Z,8.40
2022-08-18T08:39:39.778Z,7.10
2022-08-18T08:42:29.665Z,7.50
2022-08-18T08:45:08.599Z,8.27
2022-08-18T08:47:46.430Z,8.87
2022-08-18T08:50:23.534Z,8.67
2022-08-18T08:52:57.316Z,8.17
2022-08-18T08:55:30.908Z,8.97
2022-08-18T08:58:21.446Z,8.70
2022-08-18T09:00:55.071Z,9.87
2022-08-18T09:03:38.500Z,8.90
2022-08-18T09:06:23.149Z,8.97
2022-08-18T09:09:22.969Z,8.20
2022-08-18T09:12:16.613Z,10.87
2022-08-18T09:15:20.811Z,9.53
2022-08-18T09:18:14.101Z,10.60
2022-08-18T09:21:08.352Z,9.63
2022-08-18T09:23:44.411Z,10.13
2022-08-18T09:26:41.499Z,10.33
2022-08-18T09:29:28.187Z,10.03
2022-08-18T09:32:39.227Z,10.03
2022-08-18T09:35:39.213Z,11.00
2022-08-18T09:38:33.932Z,10.30
2022-08-18T09:41:27.450Z,8.67
2022-08-18T09:44:21.266Z,10.63
2022-08-18T09:47:04.372Z,10.00
2022-08-18T09:49:51.051Z,9.37
2022-08-18T09:53:02.220Z,10.90
2022-08-18T09:56:04.797Z,11.03
2022-08-18T09:59:02.226Z,9.23
2022-08-18T10:01:43.456Z,11.30
2022-08-18T10:04:49.330Z,10.23
2022-08-18T10:07:38.828Z,9.73
2022-08-18T10:13:25.107Z,9.97
2022-08-18T10:16:10.761Z,10.67
2022-08-18T10:18:59.124Z,9.10
2022-08-18T10:21:33.542Z,9.60
2022-08-18T10:24:36.161Z,10.87
2022-08-18T10:27:15.020Z,10.63
2022-08-18T10:29:56.401Z,9.73
2022-08-18T10:32:40.457Z,9.20
2022-08-18T10:35:54.493Z,9.80
2022-08-18T10:38:46.113Z,9.40
2022-08-18T10:47:25.041Z,9.30
2022-08-18T10:50:08.498Z,9.20
2022-08-18T10:53:24.590Z,9.50
2022-08-18T10:56:01.185Z,10.97
2022-08-18T10:58:50.976Z,9.60
2022-08-18T11:01:44.887Z,10.30
2022-08-18T11:04:34.656Z,9.80
2022-08-18T11:07:12.121Z,10.40
2022-08-18T11:09:50.965Z,10.63
2022-08-18T11:13:03.142Z,10.30
2022-08-18T11:15:53.694Z,10.23
2022-08-18T11:18:36.361Z,11.67
2022-08-18T11:21:42.120Z,10.90
2022-08-18T11:24:18.414Z,10.90
2022-08-18T11:26:52.606Z,11.23
2022-08-18T11:29:33.169Z,11.57
2022-08-18T11:32:11.261Z,10.87
2022-08-18T11:34:45.489Z,11.30
2022-08-18T11:37:28.220Z,11.00
2022-08-18T11:43:41.626Z,11.60
2022-08-18T11:46:16.947Z,11.43
2022-08-18T11:48:54.354Z,10.97
2022-08-18T11:51:28.560Z,10.37
2022-08-18T11:54:03.162Z,11.60
2022-08-18T11:56:37.634Z,9.90
2022-08-18T11:59:55.141Z,11.83
2022-08-18T12:02:30.637Z,10.90
2022-08-18T12:05:10.425Z,11.40
2022-08-18T12:10:36.735Z,11.40
2022-08-18T12:13:07.158Z,11.87
2022-08-18T12:15:45.285Z,10.20
2022-08-18T12:21:07.950Z,11.57
2022-08-18T12:23:49.591Z,10.37
2022-08-18T12:26:38.370Z,11.13
2022-08-18T12:29:08.647Z,11.50
2022-08-18T12:31:42.465Z,10.10
2022-08-18T12:34:24.690Z,9.73
2022-08-18T12:37:00.949Z,9.70
2022-08-18T12:39:32.125Z,9.57
2022-08-18T12:42:03.087Z,9.67
2022-08-18T12:44:33.594Z,9.63
2022-08-18T12:47:04.265Z,11.07
2022-08-18T12:49:35.687Z,9.30
2022-08-18T12:52:07.581Z,9.43
2022-08-18T12:54:55.846Z,9.90
2022-08-18T13:03:11.005Z,9.50
2022-08-18T13:05:40.143Z,10.33
2022-08-18T13:08:30.812Z,9.00
2022-08-18T13:11:20.885Z,11.27
2022-08-18T13:13:56.039Z,9.80
2022-08-18T13:16:38.494Z,10.03
2022-08-18T13:19:10.722Z,9.47
2022-08-18T13:21:41.652Z,9.90
2022-08-18T13:24:13.336Z,10.50
2022-08-18T13:26:48.708Z,8.90
2022-08-18T13:29:20.014Z,10.17
2022-08-18T13:31:55.440Z,8.73
2022-08-18T13:34:29.927Z,8.83
2022-08-18T13:36:59.501Z,9.10
2022-08-18T13:39:33.833Z,10.30
2022-08-18T13:42:21.563Z,8.77
2022-08-18T13:44:56.998Z,9.10
2022-08-18T13:47:29.208Z,9.17
2022-08-18T13:49:59.978Z,9.30
2022-08-18T13:52:35.577Z,8.00
2022-08-18T13:55:16.743Z,9.00
2022-08-18T13:57:49.680Z,9.23
2022-08-18T14:00:29.878Z,8.53
2022-08-18T14:03:03.480Z,8.73
2022-08-18T14:05:36.149Z,7.83
2022-08-18T14:08:06.744Z,8.40
2022-08-18T14:10:35.905Z,8.43
2022-08-18T14:13:20.351Z,8.93
2022-08-18T14:15:57.779Z,9.10
2022-08-18T14:18:30.694Z,8.17
2022-08-18T14:21:23.084Z,8.07
2022-08-18T14:24:14.479Z,8.63
2022-08-18T14:26:50.971Z,8.40
2022-08-18T14:29:45.799Z,8.80
2022-08-18T14:32:11.830Z,7.50
2022-08-18T14:34:50.625Z,8.37
2022-08-18T14:37:21.108Z,8.63
2022-08-18T14:39:54.061Z,7.53
2022-08-18T14:42:41.422Z,6.83
2022-08-18T14:45:18.069Z,7.90
2022-08-18T14:48:06.439Z,7.63
2022-08-18T14:50:37.318Z,7.50
2022-08-18T14:53:07.983Z,7.60
2022-08-18T14:55:37.994Z,8.53
2022-08-18T14:58:08.881Z,8.27
2022-08-18T15:00:49.718Z,8.90
2022-08-18T15:03:28.388Z,7.73
2022-08-18T15:06:04.807Z,8.20
2022-08-18T15:08:35.836Z,7.93
2022-08-18T15:11:11.829Z,9.10
2022-08-18T15:13:45.705Z,7.77
2022-08-18T15:16:16.473Z,8.77
2022-08-18T15:18:49.647Z,8.20
2022-08-18T15:21:51.316Z,7.83
2022-08-18T15:24:39.949Z,8.53
2022-08-18T15:27:10.451Z,7.73
2022-08-18T15:29:49.563Z,8.43
2022-08-18T15:32:20.184Z,8.63
2022-08-18T15:34:52.038Z,7.17
2022-08-18T15:37:24.391Z,7.37
2022-08-18T15:40:21.799Z,8.40
2022-08-18T15:43:02.323Z,8.40
2022-08-18T15:45:43.393Z,8.07
2022-08-18T15:48:29.513Z,8.00
2022-08-18T15:51:06.167Z,7.97
2022-08-18T15:53:44.744Z,8.03
2022-08-18T15:56:20.902Z,8.13
2022-08-18T15:58:51.393Z,7.80
2022-08-18T16:01:30.472Z,8.07
2022-08-18T16:04:05.384Z,8.53
2022-08-18T16:06:40.984Z,8.03
2022-08-18T16:09:11.302Z,8.17
2022-08-18T16:11:42.023Z,8.00
2022-08-18T16:14:11.182Z,7.80
2022-08-18T16:16:40.415Z,7.70
2022-08-18T16:19:09.503Z,7.40
2022-08-18T16:21:40.252Z,7.70
2022-08-18T16:24:10.256Z,7.60
2022-08-18T16:26:39.404Z,7.43
2022-08-18T16:29:08.657Z,7.10
2022-08-18T16:31:37.811Z,7.63
2022-08-18T16:34:07.172Z,7.57
2022-08-18T16:36:36.343Z,8.00
2022-08-18T16:39:07.248Z,7.97
2022-08-18T16:41:36.365Z,7.57
2022-08-18T16:44:05.843Z,7.40
2022-08-18T16:46:34.944Z,7.50
2022-08-18T16:49:06.238Z,7.93
2022-08-18T16:51:35.717Z,7.97
2022-08-18T16:54:06.360Z,8.03
2022-08-18T16:56:36.611Z,8.50
2022-08-18T17:02:16.224Z,8.80
2022-08-18T17:04:47.981Z,7.70
2022-08-18T17:07:17.471Z,7.93
2022-08-18T17:09:48.677Z,8.30
2022-08-18T17:12:19.688Z,7.83
2022-08-18T17:14:52.240Z,8.73
2022-08-18T17:17:25.707Z,8.83
2022-08-18T17:19:54.765Z,8.23
2022-08-18T17:22:23.917Z,9.27
2022-08-18T17:25:03.065Z,10.20
2022-08-18T17:27:37.284Z,9.33
2022-08-18T17:30:10.560Z,9.33
2022-08-18T17:32:53.503Z,8.83
2022-08-18T17:35:28.760Z,9.97
2022-08-18T17:38:04.686Z,9.20
2022-08-18T17:40:41.745Z,8.80
2022-08-18T17:43:18.810Z,9.60
2022-08-18T17:45:55.423Z,9.57
2022-08-18T17:48:31.923Z,8.63
2022-08-18T17:51:21.847Z,9.20
2022-08-18T17:53:51.000Z,9.57
2022-08-18T17:56:35.729Z,9.30
2022-08-18T17:59:50.861Z,9.03
2022-08-18T18:02:16.658Z,9.50
2022-08-18T18:05:02.584Z,9.60
2022-08-18T18:07:39.856Z,10.60
2022-08-18T18:10:14.196Z,11.37
2022-08-18T18:12:43.712Z,12.90
2022-08-18T18:15:15.336Z,13.57
2022-08-18T18:17:44.847Z,12.90
2022-08-18T18:20:25.902Z,13.90
2022-08-18T18:22:55.412Z,14.30
2022-08-18T18:25:34.804Z,13.70
2022-08-18T18:28:04.583Z,13.73
2022-08-18T18:30:33.733Z,12.53
2022-08-18T18:33:09.524Z,13.67
2022-08-18T18:35:55.037Z,13.13
2022-08-18T18:38:29.745Z,13.50
2022-08-18T18:41:02.637Z,14.60
2022-08-18T18:43:38.838Z,14.60
2022-08-18T18:46:29.849Z,13.23
2022-08-18T18:49:15.831Z,13.33
2022-08-18T18:52:02.234Z,13.30
2022-08-18T18:54:49.830Z,13.07
2022-08-18T18:57:31.873Z,13.53
2022-08-18T19:00:18.186Z,14.10
2022-08-18T19:03:05.036Z,13.90
2022-08-18T19:05:39.623Z,13.20
2022-08-18T19:08:22.013Z,14.37
2022-08-18T19:11:01.081Z,14.20
2022-08-18T19:13:36.131Z,13.20
2022-08-18T19:16:23.878Z,16.77
2022-08-18T19:19:37.549Z,17.20
2022-08-18T19:22:04.788Z,16.40
2022-08-18T19:24:58.089Z,15.53
2022-08-18T19:27:43.614Z,15.90
2022-08-18T19:30:17.063Z,16.90
2022-08-18T19:32:49.910Z,16.50
2022-08-18T19:35:25.209Z,15.93
2022-08-18T19:38:18.662Z,15.27
2022-08-18T19:40:55.287Z,17.00
2022-08-18T19:43:34.211Z,16.30
2022-08-18T19:46:18.502Z,16.20
2022-08-18T19:49:01.426Z,16.63
2022-08-18T19:51:35.845Z,16.37
2022-08-18T19:54:41.787Z,16.17
2022-08-18T19:57:34.582Z,14.77
2022-08-18T20:00:34.496Z,15.43
2022-08-18T20:03:38.467Z,14.73
2022-08-18T20:06:46.167Z,15.47
2022-08-18T20:09:50.052Z,14.67
2022-08-18T20:12:42.620Z,14.77
2022-08-18T20:15:18.654Z,14.30
2022-08-18T20:18:07.953Z,14.53
2022-08-18T20:20:39.139Z,14.67
2022-08-18T20:23:34.045Z,13.60
2022-08-18T20:26:03.387Z,13.50
2022-08-18T20:28:42.209Z,14.13
2022-08-18T20:31:16.273Z,13.87
2022-08-18T20:33:54.198Z,13.40
2022-08-18T20:36:36.999Z,13.00
2022-08-18T20:39:43.549Z,12.40
2022-08-18T20:42:57.514Z,14.10
2022-08-18T20:45:42.706Z,13.43
2022-08-18T20:48:36.272Z,13.40
2022-08-18T20:51:15.235Z,13.43
2022-08-18T20:54:01.500Z,12.93
2022-08-18T20:56:46.409Z,13.13
2022-08-18T20:59:23.589Z,13.00
2022-08-18T21:02:00.964Z,11.27
2022-08-18T21:04:46.643Z,11.43
2022-08-18T21:07:36.836Z,10.50
2022-08-18T21:10:14.188Z,11.73
2022-08-18T21:12:52.924Z,10.67
2022-08-18T21:15:26.326Z,12.10
2022-08-18T21:18:02.294Z,11.17
2022-08-18T21:20:32.424Z,10.60
2022-08-18T21:23:06.400Z,12.60
2022-08-18T21:25:36.539Z,12.30
2022-08-18T21:28:07.737Z,11.73
2022-08-18T21:30:36.865Z,11.37
2022-08-18T21:33:21.139Z,10.77
2022-08-18T21:35:50.497Z,11.33
2022-08-18T21:38:28.167Z,12.03
2022-08-18T21:41:00.250Z,11.80
2022-08-18T21:43:43.630Z,11.67
2022-08-18T21:46:26.371Z,12.70
2022-08-18T21:49:00.302Z,12.20
2022-08-18T21:51:33.218Z,13.73
2022-08-18T21:54:02.396Z,12.50
2022-08-18T21:56:35.394Z,13.73
2022-08-18T21:59:17.089Z,12.60
2022-08-18T22:01:52.668Z,13.00
2022-08-18T22:04:29.866Z,14.90
2022-08-18T22:07:02.048Z,13.07
2022-08-18T22:10:07.310Z,14.07
2022-08-18T22:12:56.416Z,13.80
2022-08-18T22:15:41.819Z,13.30
2022-08-18T22:18:36.253Z,13.90
2022-08-18T22:21:37.302Z,14.27
2022-08-18T22:24:20.655Z,13.87
2022-08-18T22:27:05.438Z,13.40
2022-08-18T22:29:45.895Z,14.23
2022-08-18T22:32:15.027Z,13.10
2022-08-18T22:34:48.480Z,12.83
2022-08-18T22:37:22.368Z,11.87
2022-08-18T22:39:55.476Z,13.53
2022-08-18T22:42:27.902Z,15.40
2022-08-18T22:45:02.731Z,13.77
2022-08-18T22:47:43.784Z,13.60
2022-08-18T22:50:15.123Z,14.10
2022-08-18T22:52:49.423Z,14.03
2022-08-18T22:55:22.080Z,14.87
2022-08-18T22:57:56.914Z,15.37
2022-08-18T23:00:28.206Z,14.60
2022-08-18T23:02:57.672Z,14.40
2022-08-18T23:05:26.815Z,14.27
2022-08-18T23:07:57.375Z,15.00
2022-08-18T23:10:26.629Z,13.37
2022-08-18T23:12:55.850Z,15.10
2022-08-18T23:18:23.681Z,14.38
2022-08-18T23:20:57.242Z,15.60
2022-08-18T23:23:29.243Z,15.17
2022-08-18T23:25:59.564Z,15.00
2022-08-18T23:28:28.754Z,15.30
2022-08-18T23:30:57.905Z,15.00
2022-08-18T23:33:28.485Z,15.40
2022-08-18T23:35:57.636Z,15.67
2022-08-18T23:38:31.657Z,15.80
2022-08-18T23:41:01.199Z,16.10
2022-08-18T23:43:30.369Z,14.53
2022-08-18T23:45:59.543Z,15.50
2022-08-18T23:48:30.168Z,15.00
2022-08-18T23:51:03.244Z,14.27
2022-08-18T23:53:32.840Z,13.43
2022-08-18T23:56:01.957Z,14.57
2022-08-18T23:58:31.020Z,14.30
